Time;durP1;ratioP1;P1;durP2;ratioP2;P2;SDS_P1;SDS_P2;PMS_P1;PMS_P2;Temp;Humidity;BMP_temperature;BMP_pressure;BME280_temperature;BME280_humidity;BME280_pressure;Samples;Min_cycle;Max_cycle;Signal;HPM_P1;HPM_P2
2022/12/03 00:04:12;;;;;;;43.22;20.85;;;-0.70;99.90;;;-0.92;80.21;102145.06;4948549;29;20224;-72
2022/12/03 00:06:52;;;;;;;40.70;18.83;;;-0.70;99.90;;;-0.83;80.07;102137.50;4955904;29;20190;-75
2022/12/03 00:09:56;;;;;;;35.88;20.70;;;-0.70;99.90;;;-0.90;80.14;102145.00;4952295;29;20276;-71
2022/12/03 00:12:52;;;;;;;36.67;17.88;;;-0.70;99.90;;;-0.89;80.10;102144.03;4961130;28;20206;-72
2022/12/03 00:15:39;;;;;;;42.03;22.50;;;-0.70;99.90;;;-0.83;79.79;102138.34;4959918;28;20196;-72
2022/12/03 00:18:36;;;;;;;46.33;19.65;;;-0.70;99.90;;;-0.83;80.08;102138.34;4948738;29;20218;-72
2022/12/03 00:21:35;;;;;;;47.15;21.25;;;-0.70;99.90;;;-0.91;79.68;102130.00;4953603;29;20342;-72
2022/12/03 00:24:26;;;;;;;42.92;17.23;;;-0.70;99.90;;;-0.81;79.25;102131.09;4956264;28;20653;-72
2022/12/03 00:27:10;;;;;;;35.58;18.85;;;-0.70;99.90;;;-0.90;79.77;102131.69;4952086;29;20362;-72
2022/12/03 00:29:57;;;;;;;35.03;19.98;;;-0.70;99.90;;;-0.92;79.66;102133.63;4943373;29;20669;-71
2022/12/03 00:33:07;;;;;;;49.10;21.77;;;-0.70;99.90;;;-0.76;80.16;102134.31;4947567;28;20203;-72
2022/12/03 00:35:52;;;;;;;34.10;19.48;;;-0.70;99.90;;;-0.90;80.04;102137.88;4949384;29;20206;-72
2022/12/03 00:38:29;;;;;;;40.58;19.10;;;-0.70;99.90;;;-0.92;79.69;102137.09;4949140;29;20665;-72
2022/12/03 00:41:18;;;;;;;44.10;21.52;;;-0.70;99.90;;;-0.89;79.53;102134.28;4936814;29;20213;-73
2022/12/03 00:47:11;;;;;;;45.53;22.08;;;-0.80;99.90;;;-0.94;80.19;102128.41;4968640;28;20232;-72
2022/12/03 00:50:02;;;;;;;40.85;18.40;;;-0.80;99.90;;;-0.89;80.27;102128.97;4973394;28;20707;-72
2022/12/03 00:52:51;;;;;;;36.42;19.42;;;-0.70;99.90;;;-0.95;79.82;102129.34;4968035;28;20192;-71
2022/12/03 00:55:54;;;;;;;39.35;21.73;;;-0.80;99.90;;;-0.89;80.27;102126.31;4943000;29;20192;-72
2022/12/03 00:58:37;;;;;;;50.22;21.77;;;-0.70;99.90;;;-0.86;79.97;102127.91;4952720;28;20203;-72
2022/12/03 01:09:04;;;;;;;41.08;21.27;;;-0.70;99.90;;;-0.85;79.86;102124.28;4951702;29;20184;-71
2022/12/03 01:11:51;;;;;;;46.43;21.87;;;-0.70;99.90;;;-0.84;79.59;102126.00;4725799;29;6605855;-73
2022/12/03 01:14:33;;;;;;;43.15;23.02;;;-0.70;99.90;;;-0.85;79.47;102132.25;4949389;29;20531;-72
2022/12/03 01:17:11;;;;;;;36.10;19.60;;;-0.60;99.90;;;-0.89;79.18;102123.66;4969886;28;20574;-73
2022/12/03 01:19:57;;;;;;;35.53;18.92;;;-0.70;99.90;;;-0.96;79.38;102122.31;4948312;29;20204;-70
2022/12/03 01:25:49;;;;;;;34.55;19.33;;;-0.80;99.90;;;-0.98;79.60;102128.69;4938267;29;20196;-72
2022/12/03 01:32:21;;;;;;;41.53;22.15;;;-0.80;99.90;;;-1.06;79.82;102138.94;4957114;29;20234;-71
2022/12/03 01:35:16;;;;;;;48.45;23.05;;;-0.80;99.90;;;-1.00;79.49;102135.91;4960577;29;20247;-72
2022/12/03 01:38:11;;;;;;;35.47;20.67;;;-0.80;99.90;;;-0.93;80.07;102131.91;4964707;28;20291;-73
2022/12/03 01:41:14;;;;;;;39.22;21.05;;;-0.80;99.90;;;-0.86;79.57;102130.56;4947911;28;20642;-72
2022/12/03 01:44:14;;;;;;;39.33;20.23;;;-0.80;99.90;;;-0.88;79.12;102124.50;4955960;28;20566;-72
2022/12/03 01:50:05;;;;;;;39.08;21.35;;;-0.70;99.90;;;-0.87;78.95;102121.72;4958699;28;20211;-72
2022/12/03 01:52:49;;;;;;;39.17;19.38;;;-0.70;99.90;;;-0.91;79.21;102125.53;4979893;28;20196;-71
2022/12/03 01:55:40;;;;;;;41.78;19.95;;;-0.70;99.90;;;-0.76;78.85;102123.69;4974823;28;20257;-72
2022/12/03 01:58:29;;;;;;;34.60;20.90;;;-0.60;99.90;;;-0.77;78.78;102121.97;4968654;28;20212;-72
2022/12/03 02:01:20;;;;;;;29.00;18.48;;;-0.60;99.90;;;-0.94;78.94;102120.44;4946868;29;20225;-72
2022/12/03 02:04:13;;;;;;;35.13;19.35;;;-0.70;99.90;;;-0.95;79.32;102110.75;4961581;28;20234;-72
2022/12/03 02:06:55;;;;;;;36.97;20.75;;;-0.70;99.90;;;-0.88;78.43;102119.19;4970524;28;20199;-72
2022/12/03 02:09:38;;;;;;;38.05;21.70;;;-0.70;99.90;;;-0.92;79.19;102123.00;4968020;29;20263;-72
2022/12/03 02:13:00;;;;;;;36.63;17.98;;;-0.70;99.90;;;-0.82;79.08;102124.09;4956377;29;20215;-72
2022/12/03 02:15:51;;;;;;;39.63;21.83;;;-0.70;99.90;;;-0.93;78.95;102118.63;4965085;29;20235;-72
2022/12/03 02:18:37;;;;;;;31.88;20.13;;;-0.70;99.90;;;-0.94;79.26;102119.56;4963198;29;20287;-72
2022/12/03 02:21:28;;;;;;;39.50;21.98;;;-0.70;99.90;;;-0.99;79.08;102121.66;4966686;29;20234;-72
2022/12/03 02:24:52;;;;;;;43.15;22.98;;;-0.80;99.90;;;-1.06;78.95;102115.03;4941195;29;20572;-72
2022/12/03 02:27:53;;;;;;;44.42;21.67;;;-0.80;99.90;;;-1.03;78.91;102114.84;4934216;29;20200;-70
2022/12/03 02:30:33;;;;;;;42.95;16.88;;;-0.90;99.90;;;-1.03;78.49;102114.84;4933629;29;20226;-70
2022/12/03 02:33:43;;;;;;;43.80;24.85;;;-0.80;99.90;;;-0.97;78.66;102120.59;4946862;29;20225;-73
2022/12/03 02:36:31;;;;;;;32.88;21.20;;;-0.80;99.90;;;-0.98;78.96;102118.06;4972096;28;20541;-71
2022/12/03 02:39:45;;;;;;;33.47;19.90;;;-0.80;99.90;;;-0.92;78.46;102107.06;4955030;29;20215;-73
2022/12/03 02:46:21;;;;;;;37.80;18.27;;;-0.80;99.90;;;-1.01;78.58;102112.94;5276787;24;20246;-71
2022/12/03 02:48:50;;;;;;;50.30;21.55;;;-0.80;99.90;;;-1.01;79.27;102115.59;4869563;29;20206;-72
2022/12/03 02:51:22;;;;;;;36.10;20.52;;;-0.80;99.90;;;-0.89;79.41;102115.66;4861431;29;20251;-72
2022/12/03 02:53:55;;;;;;;35.63;20.67;;;-0.70;99.90;;;-0.95;78.50;102112.53;4860990;29;20199;-72
2022/12/03 02:56:29;;;;;;;39.88;21.73;;;-0.80;99.90;;;-0.97;79.20;102119.78;4864334;29;20192;-72
2022/12/03 02:59:04;;;;;;;32.25;18.98;;;-0.80;99.90;;;-0.91;79.09;102114.03;4953967;23;20244;-70
2022/12/03 03:01:34;;;;;;;43.78;22.38;;;-0.70;99.90;;;-0.95;79.51;102120.50;4887594;29;20206;-70
2022/12/03 03:04:05;;;;;;;40.13;21.13;;;-0.70;99.90;;;-0.96;79.34;102116.16;4882934;29;20183;-70
2022/12/03 03:06:34;;;;;;;49.90;23.73;;;-0.70;99.90;;;-0.98;79.02;102121.59;4883301;29;20186;-72
2022/12/03 03:09:04;;;;;;;41.90;21.98;;;-0.80;99.90;;;-0.98;79.88;102112.75;4872615;29;20211;-72
2022/12/03 03:11:33;;;;;;;31.75;19.17;;;-0.80;99.90;;;-0.96;79.46;102111.69;4864459;29;20552;-71
2022/12/03 03:14:04;;;;;;;41.00;20.73;;;-0.80;99.90;;;-0.90;79.47;102115.75;4864704;29;20650;-72
2022/12/03 03:16:35;;;;;;;34.95;21.00;;;-0.80;99.90;;;-0.80;79.26;102111.56;4864055;29;20206;-69
2022/12/03 03:19:04;;;;;;;44.22;23.00;;;-0.70;99.90;;;-0.89;79.12;102106.84;4873001;29;20236;-70
2022/12/03 03:21:33;;;;;;;33.58;19.20;;;-0.70;99.90;;;-0.91;79.60;102108.72;4884523;29;20275;-70
2022/12/03 03:24:02;;;;;;;42.45;20.15;;;-0.70;99.90;;;-1.00;79.91;102112.84;4882800;29;20213;-70
2022/12/03 03:26:31;;;;;;;40.60;22.65;;;-0.80;99.90;;;-0.98;80.27;102110.09;4883095;29;20187;-71
2022/12/03 03:29:01;;;;;;;39.92;23.30;;;-0.80;99.90;;;-0.87;79.83;102110.25;4873635;29;20692;-72
2022/12/03 03:31:30;;;;;;;50.67;24.08;;;-0.70;99.90;;;-0.92;79.91;102107.88;4863885;29;20187;-72
2022/12/03 03:34:00;;;;;;;42.00;22.88;;;-0.80;99.90;;;-0.89;80.50;102101.53;4863577;29;20188;-70
2022/12/03 03:36:29;;;;;;;39.20;21.80;;;-0.70;99.90;;;-0.94;80.05;102100.97;4864452;29;20183;-70
2022/12/03 03:38:58;;;;;;;42.83;18.35;;;-0.70;99.90;;;-1.05;79.77;102095.47;4883718;29;20226;-70
2022/12/03 03:41:28;;;;;;;39.63;21.77;;;-0.80;99.90;;;-0.94;80.12;102093.00;4884632;29;20211;-71
2022/12/03 03:43:58;;;;;;;45.53;23.55;;;-0.80;99.90;;;-0.94;79.76;102098.31;4870215;29;20191;-70
2022/12/03 03:46:29;;;;;;;54.65;25.38;;;-0.80;99.90;;;-0.92;80.07;102094.59;4870569;29;20195;-69
2022/12/03 03:48:58;;;;;;;45.00;21.63;;;-0.70;99.90;;;-0.92;79.88;102096.41;4866647;29;20287;-70
2022/12/03 03:51:28;;;;;;;39.30;25.67;;;-0.70;99.90;;;-0.91;79.62;102085.66;4867651;29;20195;-70
2022/12/03 03:53:57;;;;;;;43.83;22.85;;;-0.80;99.90;;;-0.82;79.69;102086.03;4866198;29;20207;-70
2022/12/03 03:56:26;;;;;;;36.72;19.70;;;-0.70;99.90;;;-0.91;79.48;102082.16;4852090;29;20251;-71
2022/12/03 03:58:56;;;;;;;44.97;20.92;;;-0.70;99.90;;;-1.05;80.47;102085.72;4882204;29;20231;-71
2022/12/03 04:01:25;;;;;;;42.72;21.73;;;-0.80;99.90;;;-0.91;79.79;102082.16;4881953;29;20186;-70
2022/12/03 04:03:54;;;;;;;32.13;17.15;;;-0.80;99.90;;;-0.95;79.75;102078.84;4872311;29;20256;-71
2022/12/03 04:06:23;;;;;;;42.35;25.50;;;-0.80;99.90;;;-1.02;79.82;102074.06;4879841;29;20277;-71
2022/12/03 04:08:53;;;;;;;42.17;20.85;;;-0.80;99.90;;;-0.98;79.93;102076.41;4865631;29;20596;-71
2022/12/03 04:14:22;;;;;;;40.22;20.73;;;-0.80;99.90;;;-1.03;80.25;102072.34;4826145;29;20230;-71
2022/12/03 04:16:50;;;;;;;41.20;23.30;;;-0.80;99.90;;;-0.98;80.21;102070.25;4842592;29;20220;-70
2022/12/03 04:19:19;;;;;;;52.63;21.60;;;-0.80;99.90;;;-0.96;80.23;102068.31;4860974;29;20328;-69
2022/12/03 04:24:35;;;;;;;56.65;22.48;;;-0.80;99.90;;;-1.00;80.37;102069.47;4866897;29;20244;-70
2022/12/03 04:29:49;;;;;;;45.50;21.13;;;-0.80;99.90;;;-0.99;79.88;102063.22;4869373;29;20215;-72
2022/12/03 04:37:51;;;;;;;34.53;19.65;;;-0.90;99.90;;;-1.11;80.65;102056.03;4878017;29;20207;-71
2022/12/03 04:43:03;;;;;;;61.33;21.63;;;-0.90;99.90;;;-1.02;81.02;102060.78;4863651;29;20669;-70
2022/12/03 04:45:31;;;;;;;35.53;19.35;;;-0.90;99.90;;;-1.02;80.49;102058.09;4874791;29;20226;-70
2022/12/03 04:48:00;;;;;;;56.03;22.38;;;-0.90;99.90;;;-0.90;80.34;102057.28;4864363;29;20242;-72
2022/12/03 04:50:29;;;;;;;35.60;19.73;;;-0.80;99.90;;;-0.98;79.85;102054.28;4869314;29;20263;-71
2022/12/03 04:52:57;;;;;;;35.83;20.42;;;-0.80;99.90;;;-0.98;80.48;102059.59;4874962;29;20205;-72
2022/12/03 04:55:27;;;;;;;49.38;21.35;;;-0.80;99.90;;;-0.95;80.03;102059.41;4875653;29;20262;-72
2022/12/03 04:57:56;;;;;;;41.95;20.70;;;-0.80;99.90;;;-1.01;80.04;102063.31;4867355;29;20259;-69
2022/12/03 05:00:25;;;;;;;41.42;21.63;;;-0.80;99.90;;;-1.07;80.25;102060.22;4879449;29;20195;-71
2022/12/03 05:02:53;;;;;;;42.22;19.63;;;-0.80;99.90;;;-1.16;80.94;102052.84;4880744;29;20695;-69
2022/12/03 05:05:22;;;;;;;37.45;21.45;;;-0.90;99.90;;;-1.12;80.81;102046.38;4880999;29;20198;-70
2022/12/03 05:07:50;;;;;;;45.13;25.55;;;-0.90;99.90;;;-1.07;80.37;102054.91;4862477;29;20195;-71
2022/12/03 05:10:19;;;;;;;40.13;20.75;;;-0.90;99.90;;;-1.11;80.89;102043.59;4862053;29;20669;-72
2022/12/03 05:12:49;;;;;;;44.45;22.42;;;-0.90;99.90;;;-1.07;81.06;102046.94;4861963;29;20200;-71
2022/12/03 05:15:18;;;;;;;53.20;18.23;;;-0.90;99.90;;;-1.14;80.52;102040.28;4862061;29;20212;-71
2022/12/03 05:17:46;;;;;;;41.35;22.85;;;-0.90;99.90;;;-1.05;81.23;102043.19;4862056;29;20196;-71
2022/12/03 05:23:01;;;;;;;45.42;21.60;;;-0.80;99.90;;;-0.99;80.37;102042.81;4880759;29;20601;-71
2022/12/03 05:25:30;;;;;;;41.50;22.33;;;-0.80;99.90;;;-0.97;80.59;102045.38;4873124;29;20200;-70
2022/12/03 05:28:00;;;;;;;35.13;20.85;;;-0.90;99.90;;;-1.06;81.01;102043.28;4862057;29;20256;-71
2022/12/03 05:30:28;;;;;;;38.78;18.92;;;-0.80;99.90;;;-1.06;80.77;102045.94;4863586;29;20612;-71
2022/12/03 05:32:57;;;;;;;42.78;21.60;;;-0.80;99.90;;;-1.08;81.78;102040.75;4874338;29;20197;-71
2022/12/03 05:35:26;;;;;;;45.25;21.52;;;-0.80;99.90;;;-0.86;81.10;102040.19;4866951;29;20693;-72
2022/12/03 05:37:55;;;;;;;33.63;19.27;;;-0.80;99.90;;;-0.90;80.62;102041.34;4862108;29;20248;-70
2022/12/03 05:40:23;;;;;;;52.03;27.08;;;-0.70;99.90;;;-0.92;80.92;102048.59;4862312;29;20214;-72
2022/12/03 05:42:54;;;;;;;48.75;26.25;;;-0.70;99.90;;;-1.04;81.18;102050.22;4862012;29;20223;-70
2022/12/03 05:45:26;;;;;;;40.28;20.55;;;-0.80;99.90;;;-1.06;81.87;102045.94;4861621;29;20225;-70
2022/12/03 05:47:56;;;;;;;41.65;23.25;;;-0.80;99.90;;;-1.04;82.07;102038.75;4862115;29;20210;-71
2022/12/03 05:50:27;;;;;;;46.90;22.40;;;-0.80;99.90;;;-1.08;82.72;102038.09;4862565;29;20184;-71
2022/12/03 05:52:56;;;;;;;35.72;21.00;;;-0.90;99.90;;;-1.10;82.83;102039.13;4862295;29;20229;-70
2022/12/03 05:55:26;;;;;;;44.80;25.75;;;-0.90;99.90;;;-1.04;83.37;102034.28;4861553;29;20187;-71
2022/12/03 05:57:55;;;;;;;40.45;23.55;;;-0.90;99.90;;;-1.01;83.01;102027.91;4863491;29;20203;-70
2022/12/03 06:00:27;;;;;;;39.95;20.85;;;-0.80;99.90;;;-1.05;83.58;102031.72;4877620;29;20190;-71
2022/12/03 06:02:56;;;;;;;51.22;22.52;;;-0.90;99.90;;;-1.15;84.72;102033.25;4861880;29;20207;-70
2022/12/03 06:05:26;;;;;;;43.72;22.55;;;-0.90;99.90;;;-1.22;85.66;102027.50;4848988;29;20198;-71
2022/12/03 06:07:55;;;;;;;57.10;27.55;;;-1.00;99.90;;;-1.21;86.92;102025.72;4872138;29;20205;-71
2022/12/03 06:10:26;;;;;;;41.85;26.40;;;-1.00;99.90;;;-1.35;87.37;102024.78;4877004;29;20195;-70
2022/12/03 06:12:55;;;;;;;43.65;21.52;;;-1.10;99.90;;;-1.29;87.12;102025.34;4865451;29;20198;-70
2022/12/03 06:15:25;;;;;;;54.33;25.67;;;-1.10;99.90;;;-1.34;87.60;102031.78;4865409;29;20199;-71
2022/12/03 06:17:53;;;;;;;56.40;26.23;;;-1.10;99.90;;;-1.26;88.47;102038.44;4865287;29;20215;-71
2022/12/03 06:20:22;;;;;;;40.67;22.48;;;-1.10;99.90;;;-1.38;88.72;102035.59;4865583;29;20274;-72
2022/12/03 06:22:50;;;;;;;41.58;19.52;;;-1.10;99.90;;;-1.28;88.54;102035.00;4865118;29;20207;-71
2022/12/03 06:25:19;;;;;;;40.33;18.85;;;-1.10;99.90;;;-1.38;88.55;102037.41;4881468;29;20202;-71
2022/12/03 06:27:47;;;;;;;47.60;25.30;;;-1.20;99.90;;;-1.38;89.00;102029.44;4869665;29;20665;-71
2022/12/03 06:30:16;;;;;;;45.03;21.80;;;-1.20;99.90;;;-1.42;89.43;102033.25;4868196;29;20260;-71
2022/12/03 06:32:46;;;;;;;31.10;18.08;;;-1.20;99.90;;;-1.35;89.98;102029.22;4884495;29;20596;-72
2022/12/03 06:35:15;;;;;;;41.00;18.67;;;-1.20;99.90;;;-1.38;89.41;102032.09;4884123;29;20230;-70
2022/12/03 06:37:44;;;;;;;41.10;21.52;;;-1.20;99.90;;;-1.34;89.79;102034.47;4868090;29;20696;-70
2022/12/03 06:40:15;;;;;;;45.40;25.85;;;-1.20;99.90;;;-1.43;89.77;102026.22;4865574;29;20205;-70
2022/12/03 06:42:44;;;;;;;42.55;20.40;;;-1.20;99.90;;;-1.39;90.04;102031.25;4865281;29;20613;-71
2022/12/03 06:45:13;;;;;;;45.72;23.58;;;-1.20;99.90;;;-1.35;89.50;102031.88;4865457;29;20327;-72
2022/12/03 06:47:41;;;;;;;46.45;23.20;;;-1.20;99.90;;;-1.29;89.15;102031.50;4865549;29;20195;-70
2022/12/03 06:50:12;;;;;;;36.13;20.48;;;-1.20;99.90;;;-1.27;88.84;102034.06;4878454;29;20693;-71
2022/12/03 06:52:41;;;;;;;44.85;23.23;;;-1.10;99.90;;;-1.35;89.55;102034.53;4849105;29;20191;-71
2022/12/03 06:55:10;;;;;;;55.80;25.83;;;-1.10;99.90;;;-1.20;89.77;102038.03;4871447;29;20201;-71
2022/12/03 06:57:38;;;;;;;53.13;24.58;;;-1.10;99.90;;;-1.18;89.42;102038.78;4871107;29;20219;-68
2022/12/03 07:00:09;;;;;;;46.80;22.17;;;-1.00;99.90;;;-1.18;88.64;102028.16;4882363;29;20202;-70
2022/12/03 07:02:38;;;;;;;50.15;22.85;;;-1.00;99.90;;;-1.16;89.00;102028.94;4883903;29;20195;-70
2022/12/03 07:05:08;;;;;;;42.90;21.13;;;-1.00;99.90;;;-1.22;88.70;102026.66;4870752;29;20203;-72
2022/12/03 07:07:38;;;;;;;42.05;19.38;;;-1.00;99.90;;;-1.31;89.63;102031.59;4874361;29;20199;-70
2022/12/03 07:10:08;;;;;;;40.35;22.95;;;-1.10;99.90;;;-1.41;89.78;102033.16;4876029;29;20198;-70
2022/12/03 07:12:37;;;;;;;42.08;24.65;;;-1.10;99.90;;;-1.39;89.98;102027.72;4885098;29;20203;-71
2022/12/03 07:15:07;;;;;;;42.03;22.30;;;-1.20;99.90;;;-1.39;90.16;102025.94;4859488;29;20701;-71
2022/12/03 07:17:36;;;;;;;59.90;26.27;;;-1.20;99.90;;;-1.44;90.45;102028.03;4858572;29;20219;-72
2022/12/03 07:20:06;;;;;;;42.30;21.50;;;-1.20;99.90;;;-1.48;90.48;102026.50;4885312;29;20218;-71
2022/12/03 07:22:35;;;;;;;48.70;22.98;;;-1.20;99.90;;;-1.50;90.30;102028.41;4874847;29;20190;-71
2022/12/03 07:25:06;;;;;;;43.45;21.27;;;-1.30;99.90;;;-1.49;91.35;102032.78;4888927;29;20195;-70
2022/12/03 07:27:34;;;;;;;41.78;20.83;;;-1.30;99.90;;;-1.44;90.61;102030.69;4870187;29;20251;-70
2022/12/03 07:30:03;;;;;;;36.25;19.05;;;-1.30;99.90;;;-1.45;91.24;102023.66;4871542;29;20250;-72
2022/12/03 07:32:32;;;;;;;44.03;22.50;;;-1.30;99.90;;;-1.41;91.52;102030.50;4868745;29;20199;-70
2022/12/03 07:35:01;;;;;;;40.85;22.98;;;-1.30;99.90;;;-1.44;91.25;102035.13;4874248;29;20567;-70
2022/12/03 07:37:30;;;;;;;41.65;22.55;;;-1.30;99.90;;;-1.42;91.85;102027.94;4878747;29;20211;-71
2022/12/03 07:39:58;;;;;;;34.90;21.92;;;-1.20;99.90;;;-1.41;91.43;102033.16;4876453;29;20214;-69
2022/12/03 07:42:28;;;;;;;46.17;22.75;;;-1.20;99.90;;;-1.40;92.05;102021.56;4887668;29;20207;-71
2022/12/03 07:44:57;;;;;;;46.45;23.75;;;-1.20;99.90;;;-1.34;92.07;102021.19;4894098;29;20191;-69
2022/12/03 07:47:26;;;;;;;46.53;25.20;;;-1.10;99.90;;;-1.24;91.55;102021.44;4893621;29;20259;-70
2022/12/03 07:49:54;;;;;;;48.75;25.38;;;-1.10;99.90;;;-1.27;91.37;102020.78;4889808;29;20225;-72
2022/12/03 07:52:23;;;;;;;50.08;23.20;;;-1.10;99.90;;;-1.28;91.57;102029.69;4877368;29;20195;-71
2022/12/03 07:54:51;;;;;;;43.17;19.48;;;-1.10;99.90;;;-1.43;91.26;102028.88;4875331;29;20247;-71
2022/12/03 07:57:20;;;;;;;31.45;21.35;;;-1.20;99.90;;;-1.43;92.31;102029.72;4868519;29;20267;-71
2022/12/03 07:59:50;;;;;;;45.83;21.60;;;-1.20;99.90;;;-1.33;92.13;102027.34;4865877;29;20283;-71
2022/12/03 08:02:19;;;;;;;44.92;22.27;;;-1.20;99.90;;;-1.34;91.26;102025.63;4866313;29;20792;-70
2022/12/03 08:04:49;;;;;;;47.47;22.10;;;-1.20;99.90;;;-1.27;91.83;102026.09;4865804;29;20207;-70
2022/12/03 08:07:18;;;;;;;46.47;18.75;;;-1.20;99.90;;;-1.23;90.88;102016.97;4877750;29;20205;-70
2022/12/03 08:09:47;;;;;;;56.10;27.48;;;-1.10;99.90;;;-1.40;90.19;102018.91;4873335;29;20595;-71
2022/12/03 08:12:21;;;;;;;43.97;20.15;;;-1.20;99.90;;;-1.34;91.49;102010.56;4850245;29;20203;-71
2022/12/03 08:14:51;;;;;;;36.90;20.50;;;-1.20;99.90;;;-1.24;90.84;102016.13;4870186;29;20200;-70
2022/12/03 08:17:20;;;;;;;66.53;26.90;;;-1.10;99.90;;;-1.28;89.77;102008.47;4864516;29;20211;-70
2022/12/03 08:19:50;;;;;;;43.53;20.88;;;-1.10;99.90;;;-1.19;90.29;102011.38;4875578;29;20714;-72
2022/12/03 08:22:18;;;;;;;42.08;20.17;;;-1.10;99.90;;;-1.32;90.64;102013.13;4881860;29;20191;-71
2022/12/03 08:24:47;;;;;;;49.65;20.92;;;-1.10;99.90;;;-1.17;89.92;102012.13;4874434;29;20194;-71
2022/12/03 08:27:19;;;;;;;53.88;22.33;;;-1.10;99.90;;;-1.18;90.12;102009.56;4863854;29;20244;-70
2022/12/03 08:29:47;;;;;;;71.38;27.23;;;-1.00;99.90;;;-1.10;89.82;102007.25;4851220;29;20227;-70
2022/12/03 08:32:17;;;;;;;46.15;23.70;;;-1.00;99.90;;;-1.19;89.67;102011.38;4878837;29;20203;-70
2022/12/03 08:34:46;;;;;;;47.10;19.52;;;-1.00;99.90;;;-1.12;89.30;102009.19;4890940;29;20202;-71
2022/12/03 08:37:18;;;;;;;50.55;26.20;;;-1.00;99.90;;;-1.19;88.95;102005.19;4874058;29;20219;-70
2022/12/03 08:39:48;;;;;;;45.72;22.15;;;-1.00;99.90;;;-1.23;89.93;102009.00;4873396;29;20220;-72
2022/12/03 08:42:41;;;;;;;53.60;23.17;;;-1.10;99.90;;;-1.21;89.30;102007.94;4886485;29;20218;-71
2022/12/03 08:45:40;;;;;;;37.30;20.23;;;-1.10;99.90;;;-1.10;89.47;102012.56;4871877;29;20256;-71
2022/12/03 08:48:31;;;;;;;42.80;20.45;;;-1.00;99.90;;;-1.14;89.67;102000.44;4871069;29;20310;-70
2022/12/03 08:51:06;;;;;;;56.65;23.80;;;-0.90;99.90;;;-1.16;89.15;102013.00;4882421;29;20282;-72
2022/12/03 08:53:38;;;;;;;44.92;23.98;;;-0.90;99.90;;;-1.07;89.19;102015.03;4881872;29;20190;-70
2022/12/03 08:56:21;;;;;;;33.95;20.95;;;-0.90;99.90;;;-1.13;88.66;102010.13;4869740;29;20214;-70
2022/12/03 08:58:54;;;;;;;52.05;25.75;;;-0.90;99.90;;;-1.19;89.34;102007.84;4892407;23;20231;-79
2022/12/03 09:01:32;;;;;;;51.10;21.90;;;-1.00;99.90;;;-1.18;89.13;102004.25;4890384;29;20619;-77
2022/12/03 09:04:27;;;;;;;60.00;23.35;;;-1.00;99.90;;;-1.15;88.97;102009.34;4881741;29;20182;-77
2022/12/03 09:06:57;;;;;;;47.72;25.13;;;-1.00;99.90;;;-1.04;88.96;102013.03;4879244;29;20664;-77
2022/12/03 09:09:26;;;;;;;45.75;23.75;;;-0.90;99.90;;;-1.02;88.83;101999.66;4866654;29;20303;-77
2022/12/03 09:11:55;;;;;;;49.45;23.95;;;-0.90;99.90;;;-0.92;89.06;102011.38;4881480;29;20195;-78
2022/12/03 09:14:24;;;;;;;49.72;25.67;;;-0.80;99.90;;;-1.01;89.02;102001.34;4898513;29;20654;-77
2022/12/03 09:16:54;;;;;;;47.92;23.92;;;-0.90;99.90;;;-0.95;88.73;102008.91;4887614;29;20257;-77
2022/12/03 09:19:29;;;;;;;61.67;27.88;;;-0.80;99.90;;;-0.83;88.25;102010.78;4896896;29;20206;-77
2022/12/03 09:21:58;;;;;;;50.13;23.15;;;-0.70;99.90;;;-0.91;88.21;101994.47;4882775;29;20253;-78
2022/12/03 09:24:27;;;;;;;50.38;23.35;;;-0.70;99.90;;;-0.77;88.22;101998.84;4899946;29;20678;-78
2022/12/03 09:26:56;;;;;;;49.53;22.52;;;-0.60;99.90;;;-0.90;88.07;101993.50;4899130;29;20214;-77
2022/12/03 09:29:25;;;;;;;40.53;20.55;;;-0.70;99.90;;;-0.84;88.23;101995.78;4899836;29;20202;-77
2022/12/03 09:31:54;;;;;;;46.47;26.73;;;-0.70;99.90;;;-0.83;88.50;101992.16;4884797;29;20254;-78
2022/12/03 09:34:24;;;;;;;49.63;27.02;;;-0.70;99.90;;;-0.83;88.95;101991.31;4901694;29;20190;-76
2022/12/03 09:36:53;;;;;;;39.25;19.33;;;-0.60;99.90;;;-0.79;88.09;101990.16;4908919;29;20270;-77
2022/12/03 09:39:22;;;;;;;53.55;26.08;;;-0.60;99.90;;;-0.77;87.65;101991.75;4909849;29;20190;-78
2022/12/03 09:41:51;;;;;;;50.05;24.60;;;-0.50;99.90;;;-0.73;88.40;101987.94;4912587;29;20223;-77
2022/12/03 09:44:20;;;;;;;47.25;21.15;;;-0.50;99.90;;;-0.64;87.71;101989.13;4898896;29;20198;-78
2022/12/03 09:46:50;;;;;;;57.55;25.83;;;-0.50;99.90;;;-0.54;88.09;101972.44;4900490;29;20210;-77
2022/12/03 09:49:19;;;;;;;45.13;22.63;;;-0.40;99.90;;;-0.49;87.44;101983.63;4892733;29;20201;-78
2022/12/03 09:51:49;;;;;;;41.15;21.50;;;-0.30;99.90;;;-0.40;88.39;101982.13;4880695;29;20250;-78
2022/12/03 09:54:24;;;;;;;43.50;23.80;;;-0.30;99.90;;;-0.34;87.09;101978.22;4870431;29;20658;-77
2022/12/03 09:56:55;;;;;;;50.70;24.10;;;-0.20;99.90;;;-0.36;87.72;101980.97;4900408;29;20213;-78
2022/12/03 09:59:27;;;;;;;48.83;22.25;;;-0.30;99.90;;;-0.36;87.69;101969.47;4899631;29;20242;-78
2022/12/03 10:01:57;;;;;;;40.08;22.05;;;-0.20;99.90;;;-0.37;87.80;101965.09;4900170;29;20261;-78
2022/12/03 10:04:27;;;;;;;47.03;24.50;;;-0.20;99.90;;;-0.36;87.72;101964.16;4882828;29;20305;-77
2022/12/03 10:07:01;;;;;;;42.45;20.83;;;-0.20;99.90;;;-0.54;87.64;101959.16;4898829;29;20657;-77
2022/12/03 10:09:37;;;;;;;46.75;23.83;;;-0.30;99.90;;;-0.62;88.26;101955.28;4900534;29;20257;-78
2022/12/03 10:12:11;;;;;;;40.88;22.65;;;-0.30;99.90;;;-0.46;88.72;101951.50;4900199;29;20701;-77
2022/12/03 10:14:44;;;;;;;53.30;26.85;;;-0.40;99.90;;;-0.45;87.59;101953.19;4900080;29;20193;-76
2022/12/03 10:17:14;;;;;;;45.80;22.48;;;-0.30;99.90;;;-0.47;88.08;101955.09;4899956;29;20666;-77
2022/12/03 10:19:46;;;;;;;66.85;25.08;;;-0.30;99.90;;;-0.50;87.63;101950.00;4901673;29;20795;-78
2022/12/03 10:22:20;;;;;;;38.05;20.70;;;-0.30;99.90;;;-0.71;87.83;101946.16;4905300;29;20174;-76
2022/12/03 10:25:11;;;;;;;31.92;18.95;;;-0.40;99.90;;;-0.80;88.26;101944.13;4902897;29;20588;-79
2022/12/03 10:27:43;;;;;;;36.50;20.73;;;-0.50;99.90;;;-0.69;88.73;101948.72;4900332;29;20230;-78
2022/12/03 10:30:18;;;;;;;43.80;20.48;;;-0.60;99.90;;;-0.52;88.94;101943.94;4900938;29;20178;-78
2022/12/03 10:32:50;;;;;;;47.30;21.25;;;-0.50;99.90;;;-0.60;88.23;101938.28;4883742;29;20545;-78
2022/12/03 10:35:23;;;;;;;50.45;24.30;;;-0.40;99.90;;;-0.56;87.92;101944.25;4898570;29;20214;-77
2022/12/03 10:38:01;;;;;;;47.08;22.00;;;-0.40;99.90;;;-0.63;88.73;101935.00;4899612;29;20197;-78
2022/12/03 10:40:34;;;;;;;56.33;24.05;;;-0.50;99.90;;;-0.54;89.25;101924.59;4898191;29;20210;-78
2022/12/03 10:43:22;;;;;;;43.95;22.15;;;-0.50;99.90;;;-0.50;88.27;101934.06;4899922;29;20178;-78
2022/12/03 10:46:11;;;;;;;41.45;22.80;;;-0.40;99.90;;;-0.38;87.91;101936.81;4901625;29;20210;-78
2022/12/03 10:48:40;;;;;;;45.55;19.80;;;-0.30;99.90;;;-0.43;87.11;101935.31;4902270;29;20173;-77
2022/12/03 10:51:19;;;;;;;37.35;19.88;;;-0.30;99.90;;;-0.57;86.61;101926.59;4903066;29;20197;-77
2022/12/03 10:53:51;;;;;;;44.47;22.85;;;-0.40;99.90;;;-0.76;86.98;101927.00;4901171;29;20183;-76
2022/12/03 10:56:26;;;;;;;49.95;20.30;;;-0.50;99.90;;;-0.71;87.56;101927.53;4885179;29;20218;-77
2022/12/03 10:58:56;;;;;;;56.42;24.75;;;-0.50;99.90;;;-0.54;87.06;101932.56;4905490;29;20641;-76
2022/12/03 11:01:26;;;;;;;40.00;18.75;;;-0.40;99.90;;;-0.60;87.40;101927.66;4903875;29;20221;-77
2022/12/03 11:04:04;;;;;;;67.13;27.60;;;-0.50;99.90;;;-0.71;87.99;101929.34;4902104;29;20198;-77
2022/12/03 11:06:33;;;;;;;49.95;24.10;;;-0.50;99.90;;;-0.64;87.60;101931.50;4902299;29;20218;-77
2022/12/03 11:09:05;;;;;;;49.60;23.20;;;-0.50;99.90;;;-0.65;87.98;101935.09;4884433;29;20194;-77
2022/12/03 11:11:36;;;;;;;50.15;23.27;;;-0.50;99.90;;;-0.65;86.86;101924.47;4882920;29;20205;-77
2022/12/03 11:14:05;;;;;;;46.40;20.38;;;-0.50;99.90;;;-0.65;87.73;101916.50;4865088;29;20577;-77
2022/12/03 11:17:08;;;;;;;45.15;23.40;;;-0.50;99.90;;;-0.64;86.60;101918.19;4867081;29;20231;-76
2022/12/03 11:19:50;;;;;;;42.55;20.02;;;-0.40;99.90;;;-0.71;86.95;101914.25;4866427;29;20214;-77